sensor_id;sensor_type;location;lat;lon;timestamp;P1;durP1;ratioP1;P2;durP2;ratioP2
75993;SDS011;64680;53.800;9.988;2023-10-09T00:01:49;3.40;;;1.20;;
75993;SDS011;64680;53.800;9.988;2023-10-09T00:04:16;1.98;;;1.08;;
75993;SDS011;64680;53.800;9.988;2023-10-09T00:06:41;3.50;;;1.23;;
75993;SDS011;64680;53.800;9.988;2023-10-09T00:09:07;2.78;;;1.42;;
75993;SDS011;64680;53.800;9.988;2023-10-09T00:11:56;3.97;;;1.08;;
75993;SDS011;64680;53.800;9.988;2023-10-09T00:14:25;2.22;;;0.88;;
75993;SDS011;64680;53.800;9.988;2023-10-09T00:16:55;2.30;;;1.15;;
75993;SDS011;64680;53.800;9.988;2023-10-09T00:22:08;2.55;;;1.63;;
75993;SDS011;64680;53.800;9.988;2023-10-09T00:24:45;2.55;;;1.20;;
75993;SDS011;64680;53.800;9.988;2023-10-09T00:27:11;3.05;;;1.10;;
75993;SDS011;64680;53.800;9.988;2023-10-09T00:29:37;1.95;;;1.00;;
75993;SDS011;64680;53.800;9.988;2023-10-09T00:32:14;3.50;;;1.15;;
75993;SDS011;64680;53.800;9.988;2023-10-09T00:34:52;2.38;;;1.20;;
75993;SDS011;64680;53.800;9.988;2023-10-09T00:37:23;2.85;;;1.10;;
75993;SDS011;64680;53.800;9.988;2023-10-09T00:39:50;4.47;;;1.23;;
75993;SDS011;64680;53.800;9.988;2023-10-09T00:42:23;2.03;;;0.93;;
75993;SDS011;64680;53.800;9.988;2023-10-09T00:44:58;2.15;;;1.10;;
75993;SDS011;64680;53.800;9.988;2023-10-09T00:47:34;2.10;;;1.13;;
75993;SDS011;64680;53.800;9.988;2023-10-09T00:50:07;3.22;;;1.10;;
75993;SDS011;64680;53.800;9.988;2023-10-09T00:52:47;2.92;;;0.90;;
75993;SDS011;64680;53.800;9.988;2023-10-09T00:55:26;3.50;;;1.08;;
75993;SDS011;64680;53.800;9.988;2023-10-09T00:58:02;2.53;;;0.82;;
75993;SDS011;64680;53.800;9.988;2023-10-09T01:00:35;3.42;;;1.05;;
75993;SDS011;64680;53.800;9.988;2023-10-09T01:03:10;2.50;;;1.10;;
75993;SDS011;64680;53.800;9.988;2023-10-09T01:05:53;3.65;;;0.98;;
75993;SDS011;64680;53.800;9.988;2023-10-09T01:08:25;2.20;;;1.10;;
75993;SDS011;64680;53.800;9.988;2023-10-09T01:11:11;1.33;;;1.02;;
75993;SDS011;64680;53.800;9.988;2023-10-09T01:13:44;1.48;;;0.90;;
75993;SDS011;64680;53.800;9.988;2023-10-09T01:16:14;1.40;;;0.90;;
75993;SDS011;64680;53.800;9.988;2023-10-09T01:18:43;1.50;;;1.08;;
75993;SDS011;64680;53.800;9.988;2023-10-09T01:21:10;2.45;;;1.20;;
75993;SDS011;64680;53.800;9.988;2023-10-09T01:23:40;2.65;;;1.50;;
75993;SDS011;64680;53.800;9.988;2023-10-09T01:26:38;2.08;;;1.40;;
75993;SDS011;64680;53.800;9.988;2023-10-09T01:29:09;2.80;;;1.35;;
75993;SDS011;64680;53.800;9.988;2023-10-09T01:34:17;1.48;;;0.93;;
75993;SDS011;64680;53.800;9.988;2023-10-09T01:36:43;1.67;;;1.00;;
75993;SDS011;64680;53.800;9.988;2023-10-09T01:39:13;4.00;;;1.27;;
75993;SDS011;64680;53.800;9.988;2023-10-09T01:42:11;3.75;;;1.08;;
75993;SDS011;64680;53.800;9.988;2023-10-09T01:44:48;3.22;;;1.00;;
75993;SDS011;64680;53.800;9.988;2023-10-09T01:47:14;2.80;;;0.90;;
75993;SDS011;64680;53.800;9.988;2023-10-09T01:49:43;3.00;;;1.10;;
75993;SDS011;64680;53.800;9.988;2023-10-09T01:52:11;7.53;;;1.02;;
75993;SDS011;64680;53.800;9.988;2023-10-09T01:54:46;2.15;;;1.17;;
75993;SDS011;64680;53.800;9.988;2023-10-09T01:57:16;2.58;;;1.30;;
75993;SDS011;64680;53.800;9.988;2023-10-09T01:59:55;2.08;;;1.02;;
75993;SDS011;64680;53.800;9.988;2023-10-09T02:02:24;2.50;;;0.88;;
75993;SDS011;64680;53.800;9.988;2023-10-09T02:04:54;5.22;;;1.23;;
75993;SDS011;64680;53.800;9.988;2023-10-09T02:07:35;3.30;;;1.05;;
75993;SDS011;64680;53.800;9.988;2023-10-09T02:10:16;2.75;;;1.10;;
75993;SDS011;64680;53.800;9.988;2023-10-09T02:13:05;4.45;;;0.90;;
75993;SDS011;64680;53.800;9.988;2023-10-09T02:15:32;2.47;;;0.85;;
75993;SDS011;64680;53.800;9.988;2023-10-09T02:18:08;2.65;;;0.90;;
75993;SDS011;64680;53.800;9.988;2023-10-09T02:23:40;2.38;;;0.70;;
75993;SDS011;64680;53.800;9.988;2023-10-09T02:26:15;2.90;;;1.00;;
75993;SDS011;64680;53.800;9.988;2023-10-09T02:28:50;3.28;;;1.13;;
75993;SDS011;64680;53.800;9.988;2023-10-09T02:31:23;3.25;;;1.33;;
75993;SDS011;64680;53.800;9.988;2023-10-09T02:33:52;1.98;;;0.90;;
75993;SDS011;64680;53.800;9.988;2023-10-09T02:36:20;2.67;;;1.23;;
75993;SDS011;64680;53.800;9.988;2023-10-09T02:38:49;3.47;;;0.90;;
75993;SDS011;64680;53.800;9.988;2023-10-09T02:41:18;2.80;;;1.15;;
75993;SDS011;64680;53.800;9.988;2023-10-09T02:43:45;1.73;;;1.15;;
75993;SDS011;64680;53.800;9.988;2023-10-09T02:46:12;1.85;;;0.88;;
75993;SDS011;64680;53.800;9.988;2023-10-09T02:48:54;3.45;;;1.25;;
75993;SDS011;64680;53.800;9.988;2023-10-09T02:51:22;1.85;;;1.45;;
75993;SDS011;64680;53.800;9.988;2023-10-09T02:53:56;3.08;;;1.20;;
75993;SDS011;64680;53.800;9.988;2023-10-09T02:56:24;2.13;;;0.90;;
75993;SDS011;64680;53.800;9.988;2023-10-09T02:59:01;2.00;;;1.05;;
75993;SDS011;64680;53.800;9.988;2023-10-09T03:01:30;5.75;;;1.30;;
75993;SDS011;64680;53.800;9.988;2023-10-09T03:03:56;1.88;;;0.80;;
75993;SDS011;64680;53.800;9.988;2023-10-09T03:06:24;1.77;;;1.10;;
75993;SDS011;64680;53.800;9.988;2023-10-09T03:08:55;3.10;;;1.10;;
75993;SDS011;64680;53.800;9.988;2023-10-09T03:11:22;2.63;;;0.93;;
75993;SDS011;64680;53.800;9.988;2023-10-09T03:13:48;2.67;;;1.10;;
75993;SDS011;64680;53.800;9.988;2023-10-09T03:16:14;4.18;;;1.20;;
75993;SDS011;64680;53.800;9.988;2023-10-09T03:18:41;2.78;;;1.52;;
75993;SDS011;64680;53.800;9.988;2023-10-09T03:21:07;2.33;;;0.90;;
75993;SDS011;64680;53.800;9.988;2023-10-09T03:23:34;2.60;;;1.23;;
75993;SDS011;64680;53.800;9.988;2023-10-09T03:25:59;2.67;;;0.88;;
75993;SDS011;64680;53.800;9.988;2023-10-09T03:28:25;1.77;;;0.80;;
75993;SDS011;64680;53.800;9.988;2023-10-09T03:30:51;2.97;;;1.02;;
75993;SDS011;64680;53.800;9.988;2023-10-09T03:33:18;2.30;;;1.02;;
75993;SDS011;64680;53.800;9.988;2023-10-09T03:35:43;3.38;;;1.08;;
75993;SDS011;64680;53.800;9.988;2023-10-09T03:38:09;2.83;;;1.10;;
75993;SDS011;64680;53.800;9.988;2023-10-09T03:40:43;2.40;;;1.35;;
75993;SDS011;64680;53.800;9.988;2023-10-09T03:43:09;2.67;;;1.00;;
75993;SDS011;64680;53.800;9.988;2023-10-09T03:45:36;2.95;;;1.30;;
75993;SDS011;64680;53.800;9.988;2023-10-09T03:48:03;2.63;;;0.95;;
75993;SDS011;64680;53.800;9.988;2023-10-09T03:50:37;3.78;;;1.27;;
75993;SDS011;64680;53.800;9.988;2023-10-09T03:53:06;3.80;;;1.00;;
75993;SDS011;64680;53.800;9.988;2023-10-09T03:55:33;1.65;;;0.93;;
75993;SDS011;64680;53.800;9.988;2023-10-09T03:57:59;2.45;;;1.27;;
75993;SDS011;64680;53.800;9.988;2023-10-09T04:00:28;2.65;;;0.98;;
75993;SDS011;64680;53.800;9.988;2023-10-09T04:02:57;2.38;;;0.88;;
75993;SDS011;64680;53.800;9.988;2023-10-09T04:05:24;2.10;;;1.00;;
75993;SDS011;64680;53.800;9.988;2023-10-09T04:07:50;4.07;;;0.93;;
75993;SDS011;64680;53.800;9.988;2023-10-09T04:10:19;4.22;;;1.02;;
75993;SDS011;64680;53.800;9.988;2023-10-09T04:13:04;2.80;;;1.02;;
75993;SDS011;64680;53.800;9.988;2023-10-09T04:15:34;3.47;;;1.02;;
75993;SDS011;64680;53.800;9.988;2023-10-09T04:18:01;1.85;;;0.70;;
75993;SDS011;64680;53.800;9.988;2023-10-09T04:20:27;3.17;;;1.00;;
75993;SDS011;64680;53.800;9.988;2023-10-09T04:23:15;3.08;;;1.00;;
75993;SDS011;64680;53.800;9.988;2023-10-09T04:25:46;2.00;;;0.90;;
75993;SDS011;64680;53.800;9.988;2023-10-09T04:28:16;1.35;;;0.52;;
75993;SDS011;64680;53.800;9.988;2023-10-09T04:30:41;1.67;;;1.05;;
75993;SDS011;64680;53.800;9.988;2023-10-09T04:33:12;2.50;;;0.90;;
75993;SDS011;64680;53.800;9.988;2023-10-09T04:36:09;1.73;;;1.08;;
75993;SDS011;64680;53.800;9.988;2023-10-09T04:38:47;2.25;;;1.02;;
75993;SDS011;64680;53.800;9.988;2023-10-09T04:41:31;2.35;;;1.05;;
75993;SDS011;64680;53.800;9.988;2023-10-09T04:43:58;2.22;;;1.00;;
75993;SDS011;64680;53.800;9.988;2023-10-09T04:46:42;2.30;;;1.33;;
75993;SDS011;64680;53.800;9.988;2023-10-09T04:49:12;2.05;;;1.20;;
75993;SDS011;64680;53.800;9.988;2023-10-09T04:51:53;3.10;;;0.88;;
75993;SDS011;64680;53.800;9.988;2023-10-09T04:54:43;3.10;;;0.85;;
75993;SDS011;64680;53.800;9.988;2023-10-09T04:57:27;5.22;;;1.10;;
75993;SDS011;64680;53.800;9.988;2023-10-09T04:59:54;2.42;;;1.13;;
75993;SDS011;64680;53.800;9.988;2023-10-09T05:02:23;1.95;;;0.57;;
75993;SDS011;64680;53.800;9.988;2023-10-09T05:04:49;1.75;;;0.77;;
75993;SDS011;64680;53.800;9.988;2023-10-09T05:07:35;1.52;;;0.85;;
75993;SDS011;64680;53.800;9.988;2023-10-09T05:10:19;2.10;;;0.70;;
75993;SDS011;64680;53.800;9.988;2023-10-09T05:12:49;3.10;;;0.82;;
75993;SDS011;64680;53.800;9.988;2023-10-09T05:15:24;1.73;;;0.70;;
75993;SDS011;64680;53.800;9.988;2023-10-09T05:17:55;3.38;;;0.82;;
75993;SDS011;64680;53.800;9.988;2023-10-09T05:20:34;1.48;;;0.93;;
75993;SDS011;64680;53.800;9.988;2023-10-09T05:23:20;2.20;;;0.95;;
75993;SDS011;64680;53.800;9.988;2023-10-09T05:25:50;3.00;;;0.73;;
75993;SDS011;64680;53.800;9.988;2023-10-09T05:28:18;2.58;;;1.10;;
75993;SDS011;64680;53.800;9.988;2023-10-09T05:30:56;1.63;;;0.60;;
75993;SDS011;64680;53.800;9.988;2023-10-09T05:33:31;3.22;;;0.80;;
75993;SDS011;64680;53.800;9.988;2023-10-09T05:35:59;3.03;;;0.90;;
75993;SDS011;64680;53.800;9.988;2023-10-09T05:38:50;3.55;;;0.73;;
75993;SDS011;64680;53.800;9.988;2023-10-09T05:41:41;1.63;;;0.80;;
75993;SDS011;64680;53.800;9.988;2023-10-09T05:44:16;1.50;;;0.60;;
75993;SDS011;64680;53.800;9.988;2023-10-09T05:47:01;2.80;;;0.80;;
75993;SDS011;64680;53.800;9.988;2023-10-09T05:49:56;3.38;;;1.15;;
75993;SDS011;64680;53.800;9.988;2023-10-09T05:52:48;4.38;;;0.60;;
75993;SDS011;64680;53.800;9.988;2023-10-09T05:55:17;1.95;;;0.63;;
75993;SDS011;64680;53.800;9.988;2023-10-09T05:58:02;1.98;;;0.98;;
75993;SDS011;64680;53.800;9.988;2023-10-09T06:00:28;3.20;;;1.02;;
75993;SDS011;64680;53.800;9.988;2023-10-09T06:03:13;3.13;;;0.93;;
75993;SDS011;64680;53.800;9.988;2023-10-09T06:05:48;2.17;;;0.80;;
75993;SDS011;64680;53.800;9.988;2023-10-09T06:08:23;1.83;;;0.50;;
75993;SDS011;64680;53.800;9.988;2023-10-09T06:10:52;4.45;;;1.00;;
75993;SDS011;64680;53.800;9.988;2023-10-09T06:13:31;5.07;;;1.33;;
75993;SDS011;64680;53.800;9.988;2023-10-09T06:16:04;4.70;;;1.00;;
75993;SDS011;64680;53.800;9.988;2023-10-09T06:18:59;3.35;;;1.15;;
75993;SDS011;64680;53.800;9.988;2023-10-09T06:21:36;1.67;;;0.63;;
75993;SDS011;64680;53.800;9.988;2023-10-09T06:24:21;1.90;;;0.90;;
75993;SDS011;64680;53.800;9.988;2023-10-09T06:26:54;2.72;;;0.70;;
75993;SDS011;64680;53.800;9.988;2023-10-09T06:29:40;4.03;;;0.50;;
75993;SDS011;64680;53.800;9.988;2023-10-09T06:32:12;2.83;;;1.13;;
75993;SDS011;64680;53.800;9.988;2023-10-09T06:34:58;2.78;;;0.85;;
75993;SDS011;64680;53.800;9.988;2023-10-09T06:37:43;2.95;;;0.77;;
75993;SDS011;64680;53.800;9.988;2023-10-09T06:40:29;2.97;;;1.02;;
75993;SDS011;64680;53.800;9.988;2023-10-09T06:43:23;2.05;;;0.73;;
75993;SDS011;64680;53.800;9.988;2023-10-09T06:45:49;2.90;;;0.85;;
75993;SDS011;64680;53.800;9.988;2023-10-09T06:48:34;3.45;;;0.88;;
75993;SDS011;64680;53.800;9.988;2023-10-09T06:51:03;5.57;;;1.00;;
75993;SDS011;64680;53.800;9.988;2023-10-09T06:53:38;1.80;;;1.02;;
75993;SDS011;64680;53.800;9.988;2023-10-09T06:56:26;2.00;;;1.20;;
75993;SDS011;64680;53.800;9.988;2023-10-09T06:58:55;5.00;;;0.93;;
75993;SDS011;64680;53.800;9.988;2023-10-09T07:01:28;3.17;;;1.08;;
75993;SDS011;64680;53.800;9.988;2023-10-09T07:04:03;4.82;;;0.95;;
75993;SDS011;64680;53.800;9.988;2023-10-09T07:06:47;2.63;;;1.13;;
75993;SDS011;64680;53.800;9.988;2023-10-09T07:09:14;2.55;;;1.05;;
75993;SDS011;64680;53.800;9.988;2023-10-09T07:14:12;3.92;;;1.30;;
75993;SDS011;64680;53.800;9.988;2023-10-09T07:19:40;3.38;;;1.33;;
75993;SDS011;64680;53.800;9.988;2023-10-09T07:22:12;2.60;;;1.20;;
75993;SDS011;64680;53.800;9.988;2023-10-09T07:27:36;4.18;;;1.15;;
75993;SDS011;64680;53.800;9.988;2023-10-09T07:30:18;2.92;;;1.33;;
75993;SDS011;64680;53.800;9.988;2023-10-09T07:33:06;3.22;;;1.63;;
75993;SDS011;64680;53.800;9.988;2023-10-09T07:35:35;3.42;;;1.40;;
75993;SDS011;64680;53.800;9.988;2023-10-09T07:38:07;3.72;;;1.23;;
75993;SDS011;64680;53.800;9.988;2023-10-09T07:40:39;2.83;;;1.65;;
75993;SDS011;64680;53.800;9.988;2023-10-09T07:43:41;3.70;;;1.73;;
75993;SDS011;64680;53.800;9.988;2023-10-09T07:46:12;5.28;;;1.52;;
75993;SDS011;64680;53.800;9.988;2023-10-09T07:49:16;4.72;;;1.58;;
75993;SDS011;64680;53.800;9.988;2023-10-09T07:51:49;3.63;;;1.55;;
75993;SDS011;64680;53.800;9.988;2023-10-09T07:54:17;2.33;;;1.00;;
75993;SDS011;64680;53.800;9.988;2023-10-09T07:56:57;4.18;;;1.85;;
75993;SDS011;64680;53.800;9.988;2023-10-09T07:59:34;4.05;;;1.63;;
75993;SDS011;64680;53.800;9.988;2023-10-09T08:02:06;4.63;;;1.75;;
75993;SDS011;64680;53.800;9.988;2023-10-09T08:04:38;4.10;;;1.63;;
75993;SDS011;64680;53.800;9.988;2023-10-09T08:07:13;3.10;;;1.52;;
75993;SDS011;64680;53.800;9.988;2023-10-09T08:09:59;5.70;;;1.92;;
75993;SDS011;64680;53.800;9.988;2023-10-09T08:12:46;2.47;;;1.63;;
75993;SDS011;64680;53.800;9.988;2023-10-09T08:15:15;3.33;;;2.08;;
75993;SDS011;64680;53.800;9.988;2023-10-09T08:17:44;2.05;;;0.95;;
75993;SDS011;64680;53.800;9.988;2023-10-09T08:20:21;3.95;;;1.50;;
75993;SDS011;64680;53.800;9.988;2023-10-09T08:22:51;2.80;;;1.48;;
75993;SDS011;64680;53.800;9.988;2023-10-09T08:25:23;2.78;;;1.30;;
75993;SDS011;64680;53.800;9.988;2023-10-09T08:28:03;2.75;;;1.58;;
75993;SDS011;64680;53.800;9.988;2023-10-09T08:30:47;3.30;;;1.70;;
75993;SDS011;64680;53.800;9.988;2023-10-09T08:33:28;2.42;;;1.60;;
75993;SDS011;64680;53.800;9.988;2023-10-09T08:36:06;3.63;;;1.60;;
75993;SDS011;64680;53.800;9.988;2023-10-09T08:38:39;4.07;;;2.05;;
75993;SDS011;64680;53.800;9.988;2023-10-09T08:41:10;3.17;;;1.67;;
75993;SDS011;64680;53.800;9.988;2023-10-09T08:43:51;3.60;;;1.98;;
75993;SDS011;64680;53.800;9.988;2023-10-09T08:46:22;5.15;;;1.67;;
75993;SDS011;64680;53.800;9.988;2023-10-09T08:48:52;3.10;;;1.63;;
75993;SDS011;64680;53.800;9.988;2023-10-09T08:51:26;2.92;;;1.70;;
75993;SDS011;64680;53.800;9.988;2023-10-09T08:53:54;3.95;;;1.70;;
75993;SDS011;64680;53.800;9.988;2023-10-09T08:56:21;3.60;;;2.13;;
75993;SDS011;64680;53.800;9.988;2023-10-09T08:58:59;4.82;;;1.92;;
75993;SDS011;64680;53.800;9.988;2023-10-09T09:01:26;4.25;;;2.05;;
75993;SDS011;64680;53.800;9.988;2023-10-09T09:03:56;2.80;;;1.65;;
75993;SDS011;64680;53.800;9.988;2023-10-09T09:06:22;2.90;;;1.75;;
75993;SDS011;64680;53.800;9.988;2023-10-09T09:08:49;3.75;;;2.05;;
75993;SDS011;64680;53.800;9.988;2023-10-09T09:11:19;3.83;;;2.10;;
75993;SDS011;64680;53.800;9.988;2023-10-09T09:16:28;4.68;;;2.45;;
75993;SDS011;64680;53.800;9.988;2023-10-09T09:21:36;3.08;;;1.92;;
75993;SDS011;64680;53.800;9.988;2023-10-09T09:24:03;2.83;;;1.75;;
75993;SDS011;64680;53.800;9.988;2023-10-09T09:26:56;3.15;;;1.83;;
75993;SDS011;64680;53.800;9.988;2023-10-09T09:32:01;2.83;;;1.85;;
75993;SDS011;64680;53.800;9.988;2023-10-09T09:37:24;3.05;;;1.70;;
75993;SDS011;64680;53.800;9.988;2023-10-09T09:39:58;3.63;;;1.80;;
75993;SDS011;64680;53.800;9.988;2023-10-09T09:42:26;3.22;;;1.88;;
75993;SDS011;64680;53.800;9.988;2023-10-09T09:44:53;4.78;;;2.05;;
75993;SDS011;64680;53.800;9.988;2023-10-09T09:47:20;3.08;;;1.63;;
75993;SDS011;64680;53.800;9.988;2023-10-09T09:49:53;2.42;;;1.65;;
75993;SDS011;64680;53.800;9.988;2023-10-09T09:52:25;1.70;;;1.27;;
75993;SDS011;64680;53.800;9.988;2023-10-09T09:54:53;2.60;;;1.67;;
75993;SDS011;64680;53.800;9.988;2023-10-09T09:57:19;2.50;;;1.42;;
75993;SDS011;64680;53.800;9.988;2023-10-09T09:59:51;4.28;;;1.60;;
75993;SDS011;64680;53.800;9.988;2023-10-09T10:02:32;2.67;;;1.42;;
75993;SDS011;64680;53.800;9.988;2023-10-09T10:05:02;2.80;;;1.58;;
75993;SDS011;64680;53.800;9.988;2023-10-09T10:07:32;1.92;;;1.10;;
75993;SDS011;64680;53.800;9.988;2023-10-09T10:13:03;2.22;;;1.27;;
75993;SDS011;64680;53.800;9.988;2023-10-09T10:18:51;2.50;;;1.42;;
75993;SDS011;64680;53.800;9.988;2023-10-09T10:21:17;1.23;;;1.02;;
75993;SDS011;64680;53.800;9.988;2023-10-09T10:23:44;1.63;;;0.93;;
75993;SDS011;64680;53.800;9.988;2023-10-09T10:26:16;1.50;;;1.08;;
75993;SDS011;64680;53.800;9.988;2023-10-09T10:28:46;1.23;;;0.85;;
75993;SDS011;64680;53.800;9.988;2023-10-09T10:31:51;1.98;;;1.35;;
75993;SDS011;64680;53.800;9.988;2023-10-09T10:34:19;2.15;;;1.58;;
75993;SDS011;64680;53.800;9.988;2023-10-09T10:36:48;1.98;;;1.30;;
75993;SDS011;64680;53.800;9.988;2023-10-09T10:39:17;1.75;;;1.38;;
75993;SDS011;64680;53.800;9.988;2023-10-09T10:41:56;2.40;;;1.35;;
75993;SDS011;64680;53.800;9.988;2023-10-09T10:44:25;2.38;;;1.42;;
75993;SDS011;64680;53.800;9.988;2023-10-09T10:47:07;2.20;;;1.48;;
75993;SDS011;64680;53.800;9.988;2023-10-09T10:49:57;1.67;;;1.08;;
75993;SDS011;64680;53.800;9.988;2023-10-09T10:52:32;2.10;;;1.58;;
75993;SDS011;64680;53.800;9.988;2023-10-09T10:55:10;1.98;;;1.67;;
75993;SDS011;64680;53.800;9.988;2023-10-09T10:58:03;2.50;;;1.33;;
75993;SDS011;64680;53.800;9.988;2023-10-09T11:00:51;2.20;;;1.20;;
75993;SDS011;64680;53.800;9.988;2023-10-09T11:03:24;2.10;;;0.98;;
75993;SDS011;64680;53.800;9.988;2023-10-09T11:06:09;2.53;;;1.70;;
75993;SDS011;64680;53.800;9.988;2023-10-09T11:08:46;1.50;;;1.02;;
75993;SDS011;64680;53.800;9.988;2023-10-09T11:11:19;1.42;;;1.13;;
75993;SDS011;64680;53.800;9.988;2023-10-09T11:13:45;0.98;;;0.85;;
75993;SDS011;64680;53.800;9.988;2023-10-09T11:16:22;3.17;;;1.65;;
75993;SDS011;64680;53.800;9.988;2023-10-09T11:19:00;2.88;;;1.90;;
75993;SDS011;64680;53.800;9.988;2023-10-09T11:21:37;1.45;;;1.02;;
75993;SDS011;64680;53.800;9.988;2023-10-09T11:24:07;1.33;;;0.95;;
75993;SDS011;64680;53.800;9.988;2023-10-09T11:26:51;3.33;;;1.15;;
75993;SDS011;64680;53.800;9.988;2023-10-09T11:29:20;1.42;;;1.25;;
75993;SDS011;64680;53.800;9.988;2023-10-09T11:32:06;1.13;;;0.90;;
75993;SDS011;64680;53.800;9.988;2023-10-09T11:34:47;1.85;;;1.48;;
75993;SDS011;64680;53.800;9.988;2023-10-09T11:37:18;1.70;;;0.65;;
75993;SDS011;64680;53.800;9.988;2023-10-09T11:39:54;1.23;;;0.85;;
75993;SDS011;64680;53.800;9.988;2023-10-09T11:42:21;1.55;;;0.85;;
75993;SDS011;64680;53.800;9.988;2023-10-09T11:45:03;0.88;;;0.50;;
75993;SDS011;64680;53.800;9.988;2023-10-09T11:47:57;2.55;;;0.73;;
75993;SDS011;64680;53.800;9.988;2023-10-09T11:50:42;1.10;;;0.93;;
75993;SDS011;64680;53.800;9.988;2023-10-09T11:53:09;0.98;;;0.57;;
75993;SDS011;64680;53.800;9.988;2023-10-09T11:55:47;0.90;;;0.82;;
75993;SDS011;64680;53.800;9.988;2023-10-09T11:58:17;0.52;;;0.47;;
75993;SDS011;64680;53.800;9.988;2023-10-09T12:00:48;0.40;;;0.30;;
75993;SDS011;64680;53.800;9.988;2023-10-09T12:03:30;1.50;;;0.68;;
75993;SDS011;64680;53.800;9.988;2023-10-09T12:05:57;0.82;;;0.65;;
75993;SDS011;64680;53.800;9.988;2023-10-09T12:08:31;0.77;;;0.63;;
75993;SDS011;64680;53.800;9.988;2023-10-09T12:10:57;1.65;;;0.90;;
75993;SDS011;64680;53.800;9.988;2023-10-09T12:13:23;1.08;;;0.95;;
75993;SDS011;64680;53.800;9.988;2023-10-09T12:15:50;1.00;;;0.60;;
75993;SDS011;64680;53.800;9.988;2023-10-09T12:18:20;1.27;;;0.90;;
75993;SDS011;64680;53.800;9.988;2023-10-09T12:20:47;1.20;;;0.82;;
75993;SDS011;64680;53.800;9.988;2023-10-09T12:23:16;1.38;;;1.00;;
75993;SDS011;64680;53.800;9.988;2023-10-09T12:25:42;1.00;;;0.70;;
75993;SDS011;64680;53.800;9.988;2023-10-09T12:28:10;1.25;;;0.82;;
75993;SDS011;64680;53.800;9.988;2023-10-09T12:30:37;0.80;;;0.73;;
75993;SDS011;64680;53.800;9.988;2023-10-09T12:33:12;0.80;;;0.75;;
75993;SDS011;64680;53.800;9.988;2023-10-09T12:38:07;1.63;;;0.88;;
75993;SDS011;64680;53.800;9.988;2023-10-09T12:40:37;0.80;;;0.50;;
75993;SDS011;64680;53.800;9.988;2023-10-09T12:43:05;0.93;;;0.50;;
75993;SDS011;64680;53.800;9.988;2023-10-09T12:45:40;1.00;;;0.50;;
75993;SDS011;64680;53.800;9.988;2023-10-09T12:48:06;0.68;;;0.52;;
75993;SDS011;64680;53.800;9.988;2023-10-09T12:50:34;0.85;;;0.80;;
75993;SDS011;64680;53.800;9.988;2023-10-09T12:53:06;0.80;;;0.50;;
75993;SDS011;64680;53.800;9.988;2023-10-09T12:55:36;1.38;;;0.95;;
75993;SDS011;64680;53.800;9.988;2023-10-09T12:58:05;1.10;;;0.50;;
75993;SDS011;64680;53.800;9.988;2023-10-09T13:00:33;1.10;;;0.75;;
75993;SDS011;64680;53.800;9.988;2023-10-09T13:03:02;0.70;;;0.60;;
75993;SDS011;64680;53.800;9.988;2023-10-09T13:05:52;1.10;;;1.00;;
75993;SDS011;64680;53.800;9.988;2023-10-09T13:08:22;0.73;;;0.73;;
75993;SDS011;64680;53.800;9.988;2023-10-09T13:10:50;1.00;;;0.85;;
75993;SDS011;64680;53.800;9.988;2023-10-09T13:13:26;1.27;;;0.90;;
75993;SDS011;64680;53.800;9.988;2023-10-09T13:16:26;0.95;;;0.40;;
75993;SDS011;64680;53.800;9.988;2023-10-09T13:18:53;0.65;;;0.63;;
75993;SDS011;64680;53.800;9.988;2023-10-09T13:21:27;0.60;;;0.38;;
75993;SDS011;64680;53.800;9.988;2023-10-09T13:23:56;1.58;;;0.85;;
75993;SDS011;64680;53.800;9.988;2023-10-09T13:26:23;0.43;;;0.30;;
75993;SDS011;64680;53.800;9.988;2023-10-09T13:28:54;0.70;;;0.70;;
75993;SDS011;64680;53.800;9.988;2023-10-09T13:31:21;0.82;;;0.50;;
75993;SDS011;64680;53.800;9.988;2023-10-09T13:33:50;0.93;;;0.77;;
75993;SDS011;64680;53.800;9.988;2023-10-09T13:36:20;0.70;;;0.65;;
75993;SDS011;64680;53.800;9.988;2023-10-09T13:38:55;0.68;;;0.47;;
75993;SDS011;64680;53.800;9.988;2023-10-09T13:41:22;0.95;;;0.95;;
75993;SDS011;64680;53.800;9.988;2023-10-09T13:43:50;0.90;;;0.60;;
75993;SDS011;64680;53.800;9.988;2023-10-09T13:46:16;1.08;;;0.75;;
75993;SDS011;64680;53.800;9.988;2023-10-09T13:48:43;0.80;;;0.50;;
75993;SDS011;64680;53.800;9.988;2023-10-09T13:51:10;0.90;;;0.70;;
75993;SDS011;64680;53.800;9.988;2023-10-09T13:53:42;2.45;;;0.60;;
75993;SDS011;64680;53.800;9.988;2023-10-09T13:56:12;1.35;;;1.05;;
75993;SDS011;64680;53.800;9.988;2023-10-09T13:58:49;0.73;;;0.73;;
75993;SDS011;64680;53.800;9.988;2023-10-09T14:01:16;1.02;;;0.85;;
75993;SDS011;64680;53.800;9.988;2023-10-09T14:03:57;1.00;;;0.80;;
75993;SDS011;64680;53.800;9.988;2023-10-09T14:06:24;1.40;;;0.80;;
75993;SDS011;64680;53.800;9.988;2023-10-09T14:09:00;1.92;;;1.08;;
75993;SDS011;64680;53.800;9.988;2023-10-09T14:11:33;1.65;;;0.77;;
75993;SDS011;64680;53.800;9.988;2023-10-09T14:14:03;1.05;;;0.60;;
75993;SDS011;64680;53.800;9.988;2023-10-09T14:16:34;2.65;;;1.20;;
75993;SDS011;64680;53.800;9.988;2023-10-09T14:19:01;1.35;;;1.25;;
75993;SDS011;64680;53.800;9.988;2023-10-09T14:21:32;1.38;;;1.27;;
75993;SDS011;64680;53.800;9.988;2023-10-09T14:24:02;1.83;;;1.08;;
75993;SDS011;64680;53.800;9.988;2023-10-09T14:26:40;2.65;;;1.35;;
75993;SDS011;64680;53.800;9.988;2023-10-09T14:29:07;1.55;;;1.23;;
75993;SDS011;64680;53.800;9.988;2023-10-09T14:31:33;1.77;;;1.30;;
75993;SDS011;64680;53.800;9.988;2023-10-09T14:34:04;1.80;;;1.13;;
75993;SDS011;64680;53.800;9.988;2023-10-09T14:36:30;2.22;;;1.10;;
75993;SDS011;64680;53.800;9.988;2023-10-09T14:38:59;1.55;;;0.90;;
75993;SDS011;64680;53.800;9.988;2023-10-09T14:41:26;1.35;;;1.00;;
75993;SDS011;64680;53.800;9.988;2023-10-09T14:43:53;2.08;;;1.30;;
75993;SDS011;64680;53.800;9.988;2023-10-09T14:46:19;3.28;;;1.60;;
75993;SDS011;64680;53.800;9.988;2023-10-09T14:48:53;2.00;;;1.20;;
75993;SDS011;64680;53.800;9.988;2023-10-09T14:51:22;2.75;;;1.30;;
75993;SDS011;64680;53.800;9.988;2023-10-09T14:53:55;2.22;;;1.40;;
75993;SDS011;64680;53.800;9.988;2023-10-09T14:56:23;3.42;;;1.98;;
75993;SDS011;64680;53.800;9.988;2023-10-09T14:58:54;3.58;;;1.90;;
75993;SDS011;64680;53.800;9.988;2023-10-09T15:01:24;3.10;;;1.58;;
75993;SDS011;64680;53.800;9.988;2023-10-09T15:03:56;2.70;;;1.95;;
75993;SDS011;64680;53.800;9.988;2023-10-09T15:06:24;2.72;;;1.95;;
75993;SDS011;64680;53.800;9.988;2023-10-09T15:08:55;2.55;;;1.73;;
75993;SDS011;64680;53.800;9.988;2023-10-09T15:11:33;2.80;;;1.75;;
75993;SDS011;64680;53.800;9.988;2023-10-09T15:13:58;1.80;;;1.55;;
75993;SDS011;64680;53.800;9.988;2023-10-09T15:16:24;3.40;;;2.05;;
75993;SDS011;64680;53.800;9.988;2023-10-09T15:18:56;2.45;;;1.98;;
75993;SDS011;64680;53.800;9.988;2023-10-09T15:21:27;3.30;;;2.45;;
75993;SDS011;64680;53.800;9.988;2023-10-09T15:23:57;3.22;;;2.13;;
75993;SDS011;64680;53.800;9.988;2023-10-09T15:26:23;3.50;;;2.65;;
75993;SDS011;64680;53.800;9.988;2023-10-09T15:28:50;3.30;;;1.98;;
75993;SDS011;64680;53.800;9.988;2023-10-09T15:31:16;2.95;;;2.13;;
75993;SDS011;64680;53.800;9.988;2023-10-09T15:33:43;3.92;;;2.53;;
75993;SDS011;64680;53.800;9.988;2023-10-09T15:36:13;3.65;;;2.65;;
75993;SDS011;64680;53.800;9.988;2023-10-09T15:38:39;3.22;;;2.30;;
75993;SDS011;64680;53.800;9.988;2023-10-09T15:41:05;3.28;;;2.55;;
75993;SDS011;64680;53.800;9.988;2023-10-09T15:43:31;3.50;;;2.20;;
75993;SDS011;64680;53.800;9.988;2023-10-09T15:45:59;3.40;;;2.15;;
75993;SDS011;64680;53.800;9.988;2023-10-09T15:48:24;4.70;;;2.53;;
75993;SDS011;64680;53.800;9.988;2023-10-09T15:50:50;3.67;;;2.63;;
75993;SDS011;64680;53.800;9.988;2023-10-09T15:53:16;4.72;;;3.33;;
75993;SDS011;64680;53.800;9.988;2023-10-09T15:55:43;4.43;;;3.05;;
75993;SDS011;64680;53.800;9.988;2023-10-09T15:58:09;5.22;;;3.00;;
75993;SDS011;64680;53.800;9.988;2023-10-09T16:00:35;5.60;;;3.63;;